createdAt,value
2022-09-23T00:03:33.404Z,12.70
2022-09-23T00:06:06.727Z,12.40
2022-09-23T00:08:34.860Z,12.40
2022-09-23T00:11:14.974Z,12.40
2022-09-23T00:13:43.730Z,12.40
2022-09-23T00:16:13.808Z,12.40
2022-09-23T00:18:41.901Z,12.40
2022-09-23T00:21:11.630Z,12.30
2022-09-23T00:23:40.626Z,12.30
2022-09-23T00:26:09.756Z,12.20
2022-09-23T00:28:36.931Z,12.20
2022-09-23T00:31:09.126Z,12.20
2022-09-23T00:33:36.460Z,12.30
2022-09-23T00:36:05.653Z,12.30
2022-09-23T00:38:34.034Z,12.30
2022-09-23T00:41:01.314Z,12.30
2022-09-23T00:43:41.645Z,12.30
2022-09-23T00:46:13.593Z,12.20
2022-09-23T00:48:42.951Z,12.30
2022-09-23T00:51:16.801Z,12.20
2022-09-23T00:53:46.600Z,12.00
2022-09-23T00:56:15.408Z,12.40
2022-09-23T00:58:44.700Z,12.30
2022-09-23T01:01:17.266Z,12.30
2022-09-23T01:03:46.568Z,12.40
2022-09-23T01:06:16.101Z,12.30
2022-09-23T01:08:46.035Z,12.30
2022-09-23T01:11:37.393Z,12.30
2022-09-23T01:14:17.023Z,12.40
2022-09-23T01:17:03.408Z,12.30
2022-09-23T01:19:43.576Z,12.30
2022-09-23T01:22:16.957Z,12.30
2022-09-23T01:25:25.373Z,12.20
2022-09-23T01:28:10.849Z,12.10
2022-09-23T01:30:49.753Z,12.20
2022-09-23T01:33:19.685Z,12.00
2022-09-23T01:36:05.137Z,12.00
2022-09-23T01:38:40.698Z,12.00
2022-09-23T01:41:18.528Z,12.00
2022-09-23T01:44:10.701Z,12.00
2022-09-23T01:46:55.308Z,12.00
2022-09-23T01:49:35.467Z,12.00
2022-09-23T01:52:10.173Z,12.00
2022-09-23T01:54:47.898Z,12.00
2022-09-23T02:00:40.707Z,11.90
2022-09-23T02:03:27.431Z,11.90
2022-09-23T02:06:05.717Z,11.80
2022-09-23T02:08:44.043Z,11.90
2022-09-23T02:11:16.724Z,11.90
2022-09-23T02:13:52.840Z,11.90
2022-09-23T03:09:43.867Z,11.80
2022-09-23T03:12:23.130Z,11.60
2022-09-23T03:14:55.105Z,11.50
2022-09-23T11:23:16.707Z,11.50
2022-09-23T11:26:06.093Z,19.20
2022-09-23T11:46:49.167Z,19.50
2022-09-23T11:49:34.996Z,19.90
2022-09-23T11:52:33.117Z,19.60
2022-09-23T11:55:08.997Z,19.50
2022-09-23T11:58:23.026Z,19.00
2022-09-23T12:01:13.270Z,19.10
2022-09-23T12:04:18.082Z,19.30
2022-09-23T12:06:51.528Z,19.20
2022-09-23T12:09:57.398Z,19.20
2022-09-23T12:12:27.128Z,19.50
2022-09-23T12:15:01.558Z,20.00
2022-09-23T12:18:10.574Z,20.00
2022-09-23T12:21:45.698Z,19.80
2022-09-23T12:24:31.397Z,20.10
2022-09-23T12:27:06.138Z,19.80
2022-09-23T12:29:36.328Z,20.30
2022-09-23T12:32:09.936Z,20.00
2022-09-23T12:34:49.035Z,19.90
2022-09-23T12:37:34.294Z,19.70
2022-09-23T12:40:08.548Z,19.30
2022-09-23T12:42:44.277Z,19.20
2022-09-23T12:45:39.630Z,19.20
2022-09-23T12:48:18.233Z,19.10
2022-09-23T12:50:54.040Z,18.90
2022-09-23T12:53:36.142Z,18.80
2022-09-23T12:56:15.505Z,18.80
2022-09-23T12:58:42.311Z,18.80
2022-09-23T13:01:22.780Z,18.80
2022-09-23T13:04:14.080Z,19.00
2022-09-23T13:07:06.423Z,19.10
2022-09-23T13:09:43.065Z,19.20
2022-09-23T13:12:25.679Z,19.20
2022-09-23T13:14:55.221Z,19.10
2022-09-23T13:17:26.008Z,19.00
2022-09-23T13:20:05.795Z,18.90
2022-09-23T13:22:52.551Z,18.60
2022-09-23T13:25:24.613Z,18.90
2022-09-23T13:27:55.225Z,18.70
2022-09-23T13:30:26.615Z,18.90
2022-09-23T15:02:57.703Z,18.90
2022-09-23T15:05:32.401Z,18.30
2022-09-23T15:08:02.893Z,18.40
2022-09-23T15:10:37.613Z,18.40
2022-09-23T15:13:16.352Z,18.40
2022-09-23T15:15:43.794Z,18.30
2022-09-23T15:18:38.905Z,18.30
2022-09-23T15:21:08.553Z,18.20
2022-09-23T15:23:42.405Z,18.20
2022-09-23T15:26:24.816Z,18.20
2022-09-23T15:28:54.313Z,18.20
2022-09-23T15:31:26.843Z,18.10
2022-09-23T15:33:54.100Z,18.10
2022-09-23T15:36:26.305Z,18.00
2022-09-23T15:38:54.048Z,18.00
2022-09-23T15:41:24.096Z,18.00
2022-09-23T15:43:51.560Z,18.00
2022-09-23T15:46:22.463Z,17.90
2022-09-23T15:49:07.134Z,17.90
2022-09-23T15:51:35.538Z,18.00
2022-09-23T15:54:02.406Z,18.00
2022-09-23T15:56:30.106Z,18.00
2022-09-23T15:58:56.976Z,18.00
2022-09-23T16:01:28.345Z,18.00
2022-09-23T16:03:57.323Z,17.90
2022-09-23T16:06:28.127Z,17.90
2022-09-23T16:08:55.733Z,17.90
2022-09-23T16:11:33.095Z,17.80
2022-09-23T16:14:03.565Z,17.80
2022-09-23T16:16:31.118Z,17.80
2022-09-23T16:18:58.037Z,17.80
2022-09-23T16:21:27.852Z,17.80
2022-09-23T16:23:57.277Z,17.70
2022-09-23T16:26:27.585Z,17.70
2022-09-23T16:28:56.487Z,17.70
2022-09-23T16:31:25.758Z,17.70
2022-09-23T16:33:53.680Z,17.70
2022-09-23T16:36:27.013Z,17.60
2022-09-23T16:38:58.202Z,17.50
2022-09-23T16:41:27.795Z,17.50
2022-09-23T16:43:55.643Z,17.50
2022-09-23T16:46:23.923Z,17.50
2022-09-23T16:48:53.114Z,17.50
2022-09-23T16:51:26.558Z,17.50
2022-09-23T16:53:55.391Z,17.40
2022-09-23T16:56:28.265Z,17.40
2022-09-23T16:58:56.362Z,17.40
2022-09-23T17:01:43.044Z,17.40
2022-09-23T17:04:10.740Z,17.40
2022-09-23T17:06:43.437Z,17.30
2022-09-23T17:09:11.206Z,17.20
2022-09-23T17:11:38.372Z,17.20
2022-09-23T17:14:05.918Z,17.20
2022-09-23T17:16:35.101Z,17.20
2022-09-23T17:19:10.517Z,17.20
2022-09-23T17:21:39.021Z,17.20
2022-09-23T17:24:07.983Z,17.20
2022-09-23T17:26:35.429Z,17.10
2022-09-23T17:29:02.364Z,17.10
2022-09-23T17:31:30.233Z,17.10
2022-09-23T17:33:57.578Z,17.10
2022-09-23T17:36:28.372Z,17.00
2022-09-23T17:38:55.885Z,16.90
2022-09-23T17:41:23.664Z,16.90
2022-09-23T17:43:57.121Z,16.90
2022-09-23T17:46:32.261Z,16.90
2022-09-23T17:49:00.469Z,16.90
2022-09-23T17:51:30.168Z,16.90
2022-09-23T17:53:58.228Z,16.90
2022-09-23T17:56:27.176Z,16.90
2022-09-23T17:58:54.478Z,16.80
2022-09-23T18:01:26.339Z,16.80
2022-09-23T18:03:55.147Z,16.80
2022-09-23T18:06:24.804Z,16.80
2022-09-23T18:08:52.442Z,16.80
2022-09-23T18:11:24.028Z,16.70
2022-09-23T18:14:03.176Z,16.70
2022-09-23T18:16:34.075Z,16.60
2022-09-23T18:19:02.737Z,16.70
2022-09-23T18:21:38.523Z,16.70
2022-09-23T18:24:28.577Z,16.70
2022-09-23T18:26:54.033Z,16.70
2022-09-23T18:29:23.274Z,16.70
2022-09-23T18:31:54.919Z,16.60
2022-09-23T18:34:23.241Z,16.60
2022-09-23T18:36:50.427Z,16.60
2022-09-23T18:39:17.439Z,16.50
2022-09-23T18:41:44.430Z,16.50
2022-09-23T18:44:11.495Z,16.50
2022-09-23T18:46:38.706Z,16.50
2022-09-23T18:49:24.322Z,16.50
2022-09-23T18:51:55.183Z,16.40
2022-09-23T18:54:27.756Z,16.40
2022-09-23T18:56:55.287Z,16.40
2022-09-23T18:59:25.981Z,16.40
2022-09-23T19:01:55.777Z,16.40
2022-09-23T19:04:24.559Z,16.30
2022-09-23T19:06:51.742Z,16.40
2022-09-23T19:09:18.928Z,16.30
2022-09-23T19:11:52.214Z,16.30
2022-09-23T19:14:19.649Z,16.40
2022-09-23T19:16:49.199Z,16.30
2022-09-23T19:19:16.474Z,16.30
2022-09-23T19:21:43.474Z,16.30
2022-09-23T19:24:16.062Z,16.30
2022-09-23T19:26:43.755Z,16.20
2022-09-23T19:29:15.912Z,16.20
2022-09-23T19:31:43.845Z,16.20
2022-09-23T19:34:16.516Z,16.30
2022-09-23T19:36:49.634Z,16.20
2022-09-23T19:39:18.251Z,16.20
2022-09-23T19:41:48.697Z,16.30
2022-09-23T19:44:16.741Z,16.30
2022-09-23T19:46:51.925Z,16.30
2022-09-23T19:49:24.010Z,16.20
2022-09-23T19:51:51.116Z,16.30
2022-09-23T19:54:20.956Z,16.20
2022-09-23T19:56:51.172Z,16.20
2022-09-23T19:59:19.304Z,16.10
2022-09-23T20:01:47.696Z,16.10
2022-09-23T20:04:16.017Z,16.10
2022-09-23T20:06:43.607Z,16.00
2022-09-23T20:09:10.797Z,16.00
2022-09-23T20:11:38.163Z,16.00
2022-09-23T20:14:07.377Z,15.90
2022-09-23T20:16:37.120Z,15.90
2022-09-23T20:19:05.567Z,16.00
2022-09-23T20:21:38.122Z,16.00
2022-09-23T20:24:06.631Z,15.90
2022-09-23T20:27:06.146Z,15.90
2022-09-23T20:29:32.982Z,15.90
2022-09-23T20:32:00.092Z,15.90
2022-09-23T20:34:34.670Z,15.90
2022-09-23T20:37:01.666Z,15.90
2022-09-23T20:39:28.473Z,15.90
2022-09-23T20:41:55.833Z,15.80
2022-09-23T20:44:22.783Z,15.80
2022-09-23T20:46:49.982Z,15.70
2022-09-23T20:49:18.026Z,15.70
2022-09-23T20:51:47.576Z,15.60
2022-09-23T20:54:15.830Z,15.60
2022-09-23T20:56:43.195Z,15.60
2022-09-23T20:59:11.710Z,15.50
2022-09-23T21:01:38.728Z,15.50
2022-09-23T21:04:06.149Z,15.50
2022-09-23T21:06:35.432Z,15.50
2022-09-23T21:09:02.994Z,15.40
2022-09-23T21:11:31.182Z,15.40
2022-09-23T21:14:00.429Z,15.30
2022-09-23T21:16:27.985Z,15.30
2022-09-23T21:18:54.862Z,15.40
2022-09-23T21:21:22.415Z,15.40
2022-09-23T21:23:51.198Z,15.30
2022-09-23T21:26:21.110Z,15.30
2022-09-23T21:28:51.127Z,15.30
2022-09-23T21:31:23.834Z,15.20
2022-09-23T21:34:02.699Z,15.30
2022-09-23T21:36:32.140Z,15.30
2022-09-23T21:39:01.845Z,15.30
2022-09-23T21:41:29.212Z,15.20
2022-09-23T21:43:56.487Z,15.30
2022-09-23T21:46:24.090Z,15.20
2022-09-23T21:48:53.723Z,15.20
2022-09-23T21:51:23.246Z,15.10
2022-09-23T21:53:50.312Z,15.10
2022-09-23T21:56:21.193Z,15.00
2022-09-23T21:58:50.087Z,15.00
2022-09-23T22:01:22.790Z,15.00
2022-09-23T22:03:58.994Z,15.00
2022-09-23T22:06:30.661Z,15.00
2022-09-23T22:08:59.913Z,15.00
2022-09-23T22:14:17.862Z,15.00
2022-09-23T22:16:45.934Z,15.00
2022-09-23T22:19:18.181Z,14.90
2022-09-23T22:21:47.312Z,15.00
2022-09-23T22:24:14.793Z,15.10
2022-09-23T22:26:48.274Z,15.10
2022-09-23T22:29:36.931Z,15.10
2022-09-23T22:32:24.442Z,15.10
2022-09-23T22:34:52.708Z,15.10
2022-09-23T22:37:35.986Z,15.10
2022-09-23T22:40:05.705Z,15.20
2022-09-23T22:42:33.285Z,15.20
2022-09-23T22:45:00.144Z,15.10
2022-09-23T22:47:27.212Z,15.10
2022-09-23T22:49:55.487Z,15.20
2022-09-23T22:52:24.730Z,15.10
2022-09-23T22:54:52.763Z,15.00
2022-09-23T22:57:19.846Z,14.90
2022-09-23T22:59:48.444Z,14.90
2022-09-23T23:02:18.411Z,15.00
2022-09-23T23:04:47.882Z,15.00
2022-09-23T23:07:16.650Z,15.00
2022-09-23T23:09:43.452Z,14.90
2022-09-23T23:12:10.262Z,14.90
2022-09-23T23:14:38.103Z,14.90
2022-09-23T23:17:07.562Z,14.90
2022-09-23T23:19:36.389Z,14.90
2022-09-23T23:22:04.470Z,14.90
2022-09-23T23:24:31.345Z,14.90
2022-09-23T23:26:58.415Z,14.90
2022-09-23T23:29:25.208Z,14.80
2022-09-23T23:31:52.552Z,14.90
2022-09-23T23:34:20.983Z,14.90
2022-09-23T23:36:54.461Z,14.90
2022-09-23T23:39:25.652Z,14.90
2022-09-23T23:41:54.926Z,14.80
2022-09-23T23:44:23.829Z,14.80
2022-09-23T23:46:51.174Z,14.90
2022-09-23T23:49:18.117Z,14.90
2022-09-23T23:51:44.889Z,14.90
2022-09-23T23:54:12.433Z,14.90
2022-09-23T23:56:39.251Z,14.90
2022-09-23T23:59:06.138Z,14.90
